createdAt,value
2018-10-18T07:24:15.199Z,5.3
2018-10-18T07:24:34.425Z,5.9
2018-10-18T07:25:06.141Z,6.6
2018-10-18T07:25:25.529Z,8.8
2018-10-18T07:25:44.769Z,8
2018-10-18T07:26:04.101Z,6.3
2018-10-18T07:26:23.431Z,5.7
2018-10-18T07:26:42.719Z,7.7
2018-10-18T07:27:22.731Z,4.2
2018-10-18T07:27:42.241Z,4.9
2018-10-18T07:28:01.740Z,6.2
2018-10-18T07:28:21.252Z,8.3
2018-10-18T07:28:40.740Z,8.1
2018-10-18T07:29:00.271Z,8.2
2018-10-18T07:29:19.862Z,8.1
2018-10-18T07:29:39.408Z,8.4
2018-10-18T07:29:58.924Z,10.4
2018-10-18T07:30:18.533Z,9.9
2018-10-18T07:30:37.936Z,7.7
2018-10-18T07:30:57.465Z,7.3
2018-10-18T07:31:16.951Z,6.3
2018-10-18T07:31:36.488Z,9.7
2018-10-18T07:31:56.181Z,9.1
2018-10-18T07:32:15.676Z,9.3
2018-10-18T07:32:35.179Z,8.9
2018-10-18T07:32:54.702Z,8.8
2018-10-18T07:33:16.934Z,9
2018-10-18T07:33:37.598Z,7.8
2018-10-18T07:33:57.105Z,8.4
2018-10-18T07:34:16.701Z,9.4
2018-10-18T07:34:36.296Z,9.2
2018-10-18T07:34:55.848Z,9
2018-10-18T07:35:15.373Z,11.4
2018-10-18T07:35:34.892Z,11
2018-10-18T07:35:54.570Z,9.7
2018-10-18T07:36:14.096Z,8.1
2018-10-18T07:36:33.524Z,9
2018-10-18T07:36:53.041Z,8.2
2018-10-18T07:37:12.571Z,9.7
2018-10-18T07:37:32.146Z,10.3
2018-10-18T07:37:51.647Z,10.9
2018-10-18T07:38:11.218Z,11.5
2018-10-18T07:38:30.723Z,9.6
2018-10-18T07:38:50.242Z,10.6
2018-10-18T07:39:09.738Z,11.1
2018-10-18T07:39:29.295Z,8.6
2018-10-18T07:39:48.828Z,9.6
2018-10-18T07:40:08.351Z,10.4
2018-10-18T07:40:27.854Z,10.2
2018-10-18T07:40:47.501Z,8.7
2018-10-18T07:41:07.087Z,10.6
2018-10-18T07:41:26.572Z,10.4
2018-10-18T07:41:46.075Z,9.4
2018-10-18T07:42:05.604Z,9.2
2018-10-18T07:42:25.098Z,8.6
2018-10-18T07:42:44.722Z,9.4
2018-10-18T07:43:04.223Z,10
2018-10-18T07:43:23.748Z,9.4
2018-10-18T07:43:43.281Z,12.6
2018-10-18T07:44:02.779Z,12.1
2018-10-18T07:44:22.347Z,9.6
2018-10-18T07:44:41.942Z,8.6
2018-10-18T07:45:01.473Z,10.3
2018-10-18T07:45:21.003Z,8.3
2018-10-18T07:45:40.509Z,9.1
2018-10-18T07:46:00.092Z,10.8
2018-10-18T07:46:19.634Z,12.5
2018-10-18T07:46:39.276Z,11.5
2018-10-18T07:46:58.966Z,13.9
2018-10-18T07:47:18.311Z,10.6
2018-10-18T07:47:38.132Z,11.9
2018-10-18T07:47:57.716Z,11.6
2018-10-18T07:48:17.381Z,10.8
2018-10-18T07:48:36.792Z,8.7
2018-10-18T07:48:56.321Z,12.1
2018-10-18T07:49:15.823Z,12.7
2018-10-18T07:49:35.376Z,11.7
2018-10-18T07:49:54.909Z,11
2018-10-18T07:50:14.463Z,10.5
2018-10-18T07:50:33.964Z,10.6
2018-10-18T07:50:53.480Z,13.2
2018-10-18T07:51:13.000Z,15.1
2018-10-18T07:51:32.686Z,13.6
2018-10-18T07:51:52.221Z,10
2018-10-18T07:52:11.695Z,11.7
2018-10-18T07:52:31.195Z,15.4
2018-10-18T07:52:51.748Z,10.3
2018-10-18T07:53:11.494Z,10.5
2018-10-18T07:53:30.833Z,11.6
2018-10-18T07:53:50.279Z,11.7
2018-10-18T07:54:09.907Z,11.4
2018-10-18T07:54:29.396Z,11.5
2018-10-18T07:54:48.943Z,12.1
2018-10-18T07:55:08.452Z,10.3
2018-10-18T07:55:28.035Z,9.6
2018-10-18T07:55:47.581Z,10.1
2018-10-18T07:56:07.064Z,11.1
2018-10-18T07:56:26.663Z,11.8
2018-10-18T07:56:46.177Z,10.9
2018-10-18T07:57:05.694Z,9.3
2018-10-18T07:57:25.186Z,11
2018-10-18T07:57:44.705Z,10.4
2018-10-18T07:58:04.226Z,9.8
2018-10-18T07:58:23.712Z,11
2018-10-18T07:58:44.235Z,12.5
2018-10-18T07:59:03.802Z,12
2018-10-18T07:59:23.310Z,10.7
2018-10-18T07:59:42.895Z,10.6
2018-10-18T08:00:02.475Z,12.1
2018-10-18T08:00:22.069Z,11.9
2018-10-18T08:00:41.671Z,11.8
2018-10-18T08:01:00.987Z,10.3
2018-10-18T08:01:20.532Z,11.7
2018-10-18T08:01:40.048Z,12.4
2018-10-18T08:01:59.541Z,11.4
2018-10-18T08:02:19.045Z,16.200001
2018-10-18T08:02:38.576Z,14.5
2018-10-18T08:02:58.189Z,30
2018-10-18T08:03:17.704Z,63.900002
2018-10-18T08:03:37.233Z,34.599998
2018-10-18T08:03:56.718Z,56.799999
2018-10-18T08:04:16.233Z,61.400002
2018-10-18T08:04:35.842Z,56.900002
2018-10-18T08:04:55.336Z,43.400002
2018-10-18T08:05:14.839Z,27.299999
2018-10-18T08:05:34.340Z,18
2018-10-18T08:05:53.884Z,11.4
2018-10-18T08:06:13.390Z,10.5
2018-10-18T08:06:32.905Z,11.1
2018-10-18T08:06:52.405Z,11.6
2018-10-18T08:07:11.979Z,11.9
2018-10-18T08:07:31.394Z,10.3
2018-10-18T08:07:50.905Z,10.4
2018-10-18T08:08:10.410Z,10.5
2018-10-18T08:08:30.894Z,10.3
2018-10-18T08:08:50.399Z,10.7
2018-10-18T08:09:09.888Z,10.5
2018-10-18T08:09:30.391Z,9.9
2018-10-18T08:09:52.094Z,10.4
2018-10-18T08:10:11.476Z,11.6
2018-10-18T08:10:31.012Z,10.5
2018-10-18T08:10:50.526Z,10.1
2018-10-18T08:11:10.124Z,10.5
2018-10-18T08:11:29.508Z,12
2018-10-18T08:11:49.041Z,10.4
2018-10-18T08:12:08.596Z,11.5
2018-10-18T08:12:28.214Z,10.8
2018-10-18T08:12:47.691Z,12.1
2018-10-18T08:13:07.319Z,14.1
2018-10-18T08:13:27.765Z,13.4
2018-10-18T08:13:47.302Z,15.4
2018-10-18T08:14:06.821Z,15.4
2018-10-18T08:14:26.703Z,12.9
2018-10-18T08:14:46.351Z,11.9
2018-10-18T08:15:05.860Z,10.9
2018-10-18T08:15:25.379Z,10.5
2018-10-18T08:15:44.904Z,10.7
2018-10-18T08:16:04.455Z,12
2018-10-18T08:16:23.961Z,11.3
2018-10-18T08:16:43.507Z,11.9
2018-10-18T08:17:03.356Z,10
2018-10-18T08:17:22.781Z,10.2
2018-10-18T08:17:42.232Z,10
2018-10-18T08:18:01.751Z,10.7
2018-10-18T08:18:21.258Z,10.7
2018-10-18T08:18:40.764Z,9.8
2018-10-18T08:19:00.385Z,10.2
2018-10-18T08:19:20.191Z,10.3
2018-10-18T08:19:39.409Z,11.4
2018-10-18T08:19:58.992Z,10
2018-10-18T08:20:18.497Z,9.9
2018-10-18T08:20:38.006Z,10.5
2018-10-18T08:20:57.509Z,10.3
2018-10-18T08:21:17.312Z,11.3
2018-10-18T08:21:36.834Z,12.6
2018-10-18T08:21:56.372Z,12.5
2018-10-18T08:22:15.905Z,11.2
2018-10-18T08:22:35.470Z,11.2
2018-10-18T08:22:54.976Z,11
2018-10-18T08:23:14.472Z,13
2018-10-18T08:23:33.988Z,12.4
2018-10-18T08:23:54.530Z,15.5
2018-10-18T08:24:14.034Z,16.799999
2018-10-18T08:24:33.532Z,16.4
2018-10-18T08:24:53.105Z,13
2018-10-18T08:25:12.727Z,12.1
2018-10-18T08:25:32.151Z,11.1
2018-10-18T08:25:52.706Z,15.6
2018-10-18T08:26:12.227Z,15.4
2018-10-18T08:26:31.746Z,14.5
2018-10-18T08:26:51.277Z,13.2
2018-10-18T08:27:10.849Z,12.1
2018-10-18T08:27:30.343Z,10.7
2018-10-18T08:27:49.902Z,10.6
2018-10-18T08:28:09.486Z,10
2018-10-18T08:28:29.009Z,10
2018-10-18T08:28:48.491Z,9.9
2018-10-18T08:29:08.012Z,10.2
2018-10-18T08:29:27.537Z,10
2018-10-18T08:29:47.204Z,10.1
2018-10-18T08:30:07.757Z,10.2
2018-10-18T08:30:27.251Z,10
2018-10-18T08:30:46.784Z,10.9
2018-10-18T08:31:06.416Z,12.1
2018-10-18T08:31:26.020Z,10
2018-10-18T08:31:45.404Z,10.1
2018-10-18T08:32:04.913Z,9.6
2018-10-18T08:32:24.433Z,9.8
2018-10-18T08:32:43.989Z,10.2
2018-10-18T08:33:03.525Z,10.1
2018-10-18T08:33:23.071Z,10.2
2018-10-18T08:33:42.639Z,10.1
2018-10-18T08:34:02.165Z,10.6
2018-10-18T08:34:21.705Z,11.1
2018-10-18T08:34:41.243Z,10.5
2018-10-18T08:35:00.821Z,10.9
2018-10-18T08:35:20.391Z,10.9
2018-10-18T08:35:39.968Z,10.8
2018-10-18T08:35:59.478Z,10.9
2018-10-18T08:36:18.978Z,11.1
2018-10-18T08:36:38.531Z,10.5
2018-10-18T08:36:58.080Z,10.1
2018-10-18T08:37:17.687Z,10
2018-10-18T08:37:37.196Z,10.5
2018-10-18T08:37:57.940Z,9.9
2018-10-18T08:38:17.368Z,10
2018-10-18T08:38:36.699Z,11
2018-10-18T08:38:56.233Z,10.1
2018-10-18T08:39:15.747Z,9.9
2018-10-18T08:39:35.361Z,10.2
2018-10-18T08:39:54.981Z,10.5
2018-10-18T08:40:14.547Z,9.8
2018-10-18T08:40:34.059Z,9.5
2018-10-18T08:40:53.609Z,9.2
2018-10-18T08:41:13.153Z,9.1
2018-10-18T08:41:32.800Z,9.1
2018-10-18T08:41:52.309Z,9.2
2018-10-18T08:42:11.801Z,9.6
2018-10-18T08:42:31.323Z,8.8
2018-10-18T08:42:50.885Z,9.3
2018-10-18T08:43:10.514Z,10.2
2018-10-18T08:43:29.986Z,11.2
2018-10-18T08:43:49.569Z,11.4
2018-10-18T08:44:09.075Z,9.9
2018-10-18T08:44:28.609Z,9.9
2018-10-18T08:44:48.062Z,10.1
2018-10-18T08:45:07.648Z,9.7
2018-10-18T08:45:27.191Z,9.7
2018-10-18T08:45:46.801Z,9.5
2018-10-18T08:46:07.373Z,10
2018-10-18T08:46:26.987Z,9.8
2018-10-18T08:46:47.622Z,9.5
2018-10-18T08:47:07.148Z,9.4
2018-10-18T08:47:26.680Z,9.5
2018-10-18T08:47:46.224Z,8.9
2018-10-18T08:48:05.690Z,8.6
2018-10-18T08:48:25.197Z,8.8
2018-10-18T08:48:44.689Z,8.9
2018-10-18T08:49:04.308Z,8.8
2018-10-18T08:49:23.796Z,9.2
2018-10-18T08:49:43.410Z,10.2
2018-10-18T08:50:03.077Z,10
2018-10-18T08:50:22.622Z,9.8
2018-10-18T08:50:42.142Z,10
2018-10-18T08:51:01.651Z,10.5
2018-10-18T08:51:21.179Z,9.9
2018-10-18T08:51:40.810Z,10.3
2018-10-18T08:52:00.341Z,10
2018-10-18T08:52:19.838Z,10
2018-10-18T08:52:39.353Z,10.1
2018-10-18T08:52:58.850Z,9.6
2018-10-18T08:53:18.367Z,10.3
2018-10-18T08:53:37.865Z,10.6
2018-10-18T08:53:57.381Z,11
2018-10-18T08:54:16.886Z,10
2018-10-18T08:54:36.401Z,10.1
2018-10-18T08:54:55.995Z,9.5
2018-10-18T08:55:15.567Z,9.4
2018-10-18T08:55:35.058Z,9.7
2018-10-18T08:55:54.544Z,11.2
2018-10-18T08:56:14.164Z,11
2018-10-18T08:56:33.780Z,9.6
2018-10-18T08:57:11.124Z,9.4
2018-10-18T08:57:30.612Z,9.5
2018-10-18T08:57:51.227Z,8.8
2018-10-18T08:58:10.738Z,8.8
2018-10-18T08:58:30.375Z,9.2
2018-10-18T08:58:49.937Z,9.4
2018-10-18T08:59:09.480Z,10.6
2018-10-18T08:59:28.982Z,9.1
2018-10-18T08:59:48.467Z,10.5
2018-10-18T09:00:07.996Z,9.3
2018-10-18T09:00:27.609Z,8.9
2018-10-18T09:00:47.129Z,9.2
2018-10-18T09:01:06.696Z,8.8
2018-10-18T09:01:26.186Z,8.7
2018-10-18T09:01:45.741Z,8.4
2018-10-18T09:02:05.276Z,8.3
2018-10-18T09:02:25.838Z,8.6
2018-10-18T09:02:45.425Z,8.7
2018-10-18T09:03:07.077Z,9.5
2018-10-18T09:03:27.463Z,10.3
2018-10-18T09:03:47.962Z,11.5
2018-10-18T09:04:08.422Z,9.3
2018-10-18T09:04:28.957Z,10.6
2018-10-18T09:04:49.528Z,11.5
2018-10-18T09:05:10.957Z,10.7
2018-10-18T09:05:31.475Z,10.4
2018-10-18T09:05:52.055Z,10.8
2018-10-18T09:06:12.392Z,9.9
2018-10-18T09:06:33.293Z,10.3
2018-10-18T09:06:54.023Z,10.6
2018-10-18T09:07:14.660Z,11.8
2018-10-18T09:07:35.123Z,10.4
2018-10-18T09:07:55.423Z,10.6
2018-10-18T09:08:15.885Z,10.4
2018-10-18T09:08:36.175Z,12.5
2018-10-18T09:08:57.642Z,12.1
2018-10-18T09:09:17.972Z,10.2
2018-10-18T09:09:38.172Z,10
2018-10-18T09:09:58.594Z,9.7
2018-10-18T09:10:19.176Z,10.6
2018-10-18T09:10:39.829Z,9.6
2018-10-18T09:11:00.123Z,12.1
2018-10-18T09:11:20.374Z,11.9
2018-10-18T09:11:40.736Z,11.1
2018-10-18T09:12:01.204Z,10.8
2018-10-18T09:12:21.679Z,10.8
2018-10-18T09:12:41.994Z,11.8
2018-10-18T09:13:02.373Z,13.2
2018-10-18T09:13:22.786Z,12.2
2018-10-18T09:13:43.338Z,9.6
2018-10-18T09:14:03.827Z,11.7
2018-10-18T09:14:24.241Z,11.8
2018-10-18T09:14:44.590Z,12.3
2018-10-18T09:15:04.839Z,9.7
2018-10-18T09:15:26.159Z,9.3
2018-10-18T09:15:46.761Z,11.8
2018-10-18T09:16:07.230Z,13.2
2018-10-18T09:16:27.566Z,10.6
2018-10-18T09:16:47.995Z,11.5
2018-10-18T09:17:08.764Z,11.4
2018-10-18T09:17:29.237Z,12.6
2018-10-18T09:17:50.911Z,12.1
2018-10-18T09:18:11.298Z,11.7
2018-10-18T09:18:31.650Z,14.2
2018-10-18T09:18:52.031Z,12.9
2018-10-18T09:19:13.071Z,11.7
2018-10-18T09:19:33.531Z,11.9
2018-10-18T09:19:54.998Z,11.7
2018-10-18T09:20:15.377Z,11.3
2018-10-18T09:20:35.978Z,13.1
2018-10-18T09:20:56.468Z,14.2
2018-10-18T09:21:17.368Z,12.9
2018-10-18T09:21:38.816Z,13.7
2018-10-18T09:21:59.451Z,13.2
2018-10-18T09:22:21.566Z,13.5
2018-10-18T09:22:42.287Z,16.700001
2018-10-18T09:23:04.271Z,14.2
2018-10-18T09:23:25.409Z,14.5
2018-10-18T09:23:46.142Z,13.6
2018-10-18T09:24:06.868Z,13.6
2018-10-18T09:24:28.577Z,15
2018-10-18T09:24:49.855Z,12.6
2018-10-18T09:25:11.145Z,12.6
2018-10-18T09:25:32.283Z,11.3
2018-10-18T09:25:53.624Z,11.5
2018-10-18T09:26:14.906Z,13.7
2018-10-18T09:26:37.084Z,10.9
2018-10-18T09:26:58.138Z,12.9
2018-10-18T09:27:19.254Z,11.4
2018-10-18T09:27:40.916Z,11.1
2018-10-18T09:28:01.797Z,10.5
2018-10-18T09:28:22.587Z,11.2
2018-10-18T09:28:43.884Z,12.5
2018-10-18T09:29:06.752Z,11.3
2018-10-18T09:29:30.970Z,10.6
2018-10-18T09:29:52.439Z,8.6
2018-10-18T09:30:15.674Z,10.5
2018-10-18T09:30:37.237Z,10.6
2018-10-18T09:30:58.742Z,11.7
2018-10-18T09:31:20.384Z,13.4
2018-10-18T09:31:42.226Z,11.6
2018-10-18T09:32:03.895Z,12.7
2018-10-18T09:32:25.932Z,14
2018-10-18T09:32:48.421Z,12.8
2018-10-18T09:33:10.527Z,12.4
2018-10-18T09:33:32.282Z,10
2018-10-18T09:33:53.293Z,9.8
2018-10-18T09:34:14.508Z,9.4
2018-10-18T09:34:37.030Z,10.3
2018-10-18T09:34:58.759Z,10.7
2018-10-18T09:35:20.756Z,10.3
2018-10-18T09:35:43.975Z,10.2
2018-10-18T09:36:05.401Z,10.3
2018-10-18T09:36:26.209Z,10
2018-10-18T09:36:46.981Z,10.2
2018-10-18T09:37:09.242Z,11.1
2018-10-18T09:37:45.797Z,10.3
2018-10-18T09:38:18.187Z,11.2
2018-10-18T09:38:50.155Z,11
2018-10-18T09:39:50.367Z,11.1
2018-10-18T09:40:27.083Z,12.9
2018-10-18T09:41:21.430Z,12.1
2018-10-18T09:42:00.759Z,11.9
2018-10-18T09:42:52.853Z,13.8
2018-10-18T09:43:39.924Z,11.9
2018-10-18T09:44:16.180Z,11.4
2018-10-18T09:44:37.099Z,11.8
2018-10-18T09:45:25.064Z,12.6
2018-10-18T09:45:57.762Z,10.4
2018-10-18T09:46:46.739Z,11.4
2018-10-18T09:47:22.269Z,12.9
2018-10-18T09:48:00.573Z,11.6
2018-10-18T09:48:38.601Z,11.4
2018-10-18T09:49:20.153Z,9.9
2018-10-18T09:51:03.063Z,11.4
2018-10-18T09:51:44.649Z,11.7
2018-10-18T09:52:33.652Z,10.9
2018-10-18T09:53:16.732Z,12
2018-10-18T09:53:53.890Z,11.5
2018-10-18T09:54:24.721Z,11.2
2018-10-18T09:55:15.281Z,11.4
2018-10-18T09:56:00.274Z,11.2
2018-10-18T09:56:42.509Z,11.1
2018-10-18T09:57:13.194Z,11
2018-10-18T09:57:44.988Z,13
2018-10-18T09:58:33.213Z,10.8
2018-10-18T09:59:04.825Z,11.4
2018-10-18T10:00:01.168Z,11.9
2018-10-18T10:00:36.193Z,12.4
2018-10-18T10:01:03.567Z,10.6
2018-10-18T10:02:01.106Z,10.7
2018-10-18T10:02:29.063Z,10.9
2018-10-18T10:03:33.699Z,9.5
2018-10-18T10:04:22.672Z,10.2
2018-10-18T10:05:07.998Z,9.7
2018-10-18T10:06:00.171Z,9.2
2018-10-18T10:07:01.338Z,12.1
2018-10-18T10:07:52.365Z,13.4
2018-10-18T10:08:39.006Z,14.1
2018-10-18T10:09:31.549Z,14.1
2018-10-18T10:10:09.774Z,16.700001
2018-10-18T10:11:06.290Z,13.2
2018-10-18T10:11:59.340Z,11.2
2018-10-18T10:12:30.029Z,12.8
2018-10-18T10:13:05.243Z,10.2
2018-10-18T10:13:43.759Z,12.2
2018-10-18T10:14:17.496Z,10.7
2018-10-18T10:14:56.710Z,9.3
2018-10-18T10:15:44.533Z,16.9
2018-10-18T10:16:35.314Z,16.799999
2018-10-18T10:17:31.712Z,12.5
2018-10-18T10:18:13.331Z,11.1
2018-10-18T10:18:33.967Z,11.6
2018-10-18T10:18:54.697Z,11.3
2018-10-18T10:19:15.541Z,10.2
2018-10-18T10:19:36.842Z,13.3
2018-10-18T10:19:57.429Z,11.3
2018-10-18T10:20:17.874Z,12.4
2018-10-18T10:20:39.495Z,11.3
2018-10-18T10:20:59.967Z,11.2
2018-10-18T10:21:20.581Z,11.1
2018-10-18T10:21:41.040Z,10.5
2018-10-18T10:22:01.764Z,13.6
2018-10-18T10:22:22.248Z,12.3
2018-10-18T10:22:42.707Z,11.7
2018-10-18T10:23:04.223Z,10.3
2018-10-18T10:23:24.819Z,11.5
2018-10-18T10:23:45.607Z,11.5
2018-10-18T10:24:06.241Z,10.4
2018-10-18T10:24:27.636Z,9.8
2018-10-18T10:24:47.707Z,9
2018-10-18T10:25:08.150Z,9.9
2018-10-18T10:25:28.451Z,11
2018-10-18T10:25:49.334Z,12.2
2018-10-18T10:26:10.192Z,9.9
2018-10-18T10:26:30.394Z,6.5
2018-10-18T10:26:50.693Z,5.6
2018-10-18T10:27:11.246Z,5.7
2018-10-18T10:27:32.309Z,6.4
2018-10-18T10:27:53.552Z,4.2
2018-10-18T10:28:14.483Z,6.4
2018-10-18T10:28:35.292Z,5.5
2018-10-18T10:28:55.802Z,3.4
2018-10-18T10:29:16.711Z,4.4
2018-10-18T10:29:38.177Z,4.4
2018-10-18T10:29:57.933Z,2.8
2018-10-18T10:30:17.997Z,3.9
2018-10-18T10:30:38.010Z,3.1
2018-10-18T10:30:57.838Z,2.9
2018-10-18T10:31:18.424Z,2.6
2018-10-18T10:31:39.788Z,4.3
2018-10-18T10:32:00.075Z,4.2
2018-10-18T10:32:21.338Z,3
2018-10-18T10:32:42.090Z,2.6
2018-10-18T10:33:03.318Z,2.6
2018-10-18T10:33:23.864Z,2.7
2018-10-18T10:33:45.210Z,4.1
2018-10-18T10:34:05.692Z,2.9
2018-10-18T10:34:26.689Z,2.3
2018-10-18T10:34:47.950Z,2.6
2018-10-18T10:35:07.996Z,3
2018-10-18T10:35:28.110Z,2
2018-10-18T10:35:49.121Z,1.7
2018-10-18T10:36:09.789Z,2.8
2018-10-18T10:36:29.974Z,2.7
2018-10-18T10:36:50.169Z,3.3
2018-10-18T10:37:10.979Z,2.9
2018-10-18T10:37:31.487Z,2.1
2018-10-18T10:37:51.882Z,2.2
2018-10-18T10:38:12.458Z,2.4
2018-10-18T10:38:33.067Z,3
2018-10-18T10:38:52.866Z,3.1
2018-10-18T10:39:12.638Z,2.5
2018-10-18T10:39:32.555Z,1.8
2018-10-18T10:39:53.344Z,2.2
2018-10-18T10:40:13.961Z,2.9
2018-10-18T10:40:34.378Z,2.7
2018-10-18T10:40:55.077Z,3.3
2018-10-18T10:41:15.415Z,2.6
2018-10-18T10:41:36.964Z,1.8
2018-10-18T10:41:57.925Z,1.6
2018-10-18T10:42:18.186Z,5.5
2018-10-18T10:42:39.292Z,4.7
2018-10-18T10:42:59.773Z,2.7
2018-10-18T10:43:20.273Z,2.6
2018-10-18T10:43:41.018Z,1.7
2018-10-18T10:44:02.144Z,1.8
2018-10-18T10:44:23.126Z,1.8
2018-10-18T10:44:43.916Z,1.4
2018-10-18T10:45:04.805Z,2.9
2018-10-18T10:45:25.546Z,3
2018-10-18T10:45:46.611Z,2
2018-10-18T10:46:07.210Z,1.8
2018-10-18T10:46:28.771Z,3.5
2018-10-18T10:46:49.438Z,2.7
2018-10-18T10:47:10.162Z,2.3
2018-10-18T10:47:31.010Z,2.4
2018-10-18T10:47:51.667Z,2.4
2018-10-18T10:48:11.919Z,2.7
2018-10-18T10:48:32.257Z,3.1
2018-10-18T10:48:53.095Z,2.7
2018-10-18T10:49:13.747Z,2
2018-10-18T10:49:34.288Z,2.1
2018-10-18T10:49:55.065Z,1.9
2018-10-18T10:50:15.952Z,3.6
2018-10-18T10:50:36.132Z,4.6
2018-10-18T10:50:56.675Z,2.4
2018-10-18T10:51:17.566Z,2
2018-10-18T10:51:38.268Z,3
2018-10-18T10:51:59.354Z,2.9
2018-10-18T10:52:20.383Z,2.5
2018-10-18T10:52:41.263Z,3.3
2018-10-18T10:53:02.062Z,3.5
2018-10-18T10:53:22.794Z,2.7
2018-10-18T10:53:44.488Z,2.3
2018-10-18T10:54:05.162Z,2.5
2018-10-18T10:54:25.870Z,3.2
2018-10-18T10:54:47.152Z,2.8
2018-10-18T10:55:07.936Z,2
2018-10-18T10:55:28.772Z,1.6
2018-10-18T10:55:49.739Z,2.6
2018-10-18T10:56:11.251Z,4
2018-10-18T10:56:32.347Z,2.7
2018-10-18T10:56:53.999Z,1.8
2018-10-18T10:57:15.540Z,3.1
2018-10-18T10:57:36.503Z,2.3
2018-10-18T10:57:56.983Z,2.9
2018-10-18T10:58:17.466Z,3.9
2018-10-18T10:58:38.007Z,3.7
2018-10-18T10:58:58.568Z,4.5
2018-10-18T10:59:19.199Z,3.8
2018-10-18T10:59:39.589Z,2.6
2018-10-18T11:00:01.270Z,1.9
2018-10-18T11:00:21.639Z,2.2
2018-10-18T11:00:43.060Z,2.6
2018-10-18T11:01:03.641Z,1.5
2018-10-18T11:01:23.755Z,2.9
2018-10-18T11:01:43.933Z,3.3
2018-10-18T11:02:05.418Z,4.1
2018-10-18T11:02:25.782Z,3.5
2018-10-18T11:02:46.088Z,3.1
2018-10-18T11:03:06.695Z,2.7
2018-10-18T11:03:26.925Z,2.6
2018-10-18T11:03:47.268Z,4.5
2018-10-18T11:04:07.794Z,3.4
2018-10-18T11:04:28.385Z,2.8
2018-10-18T11:04:48.706Z,3.7
2018-10-18T11:05:08.778Z,3.8
2018-10-18T11:05:29.464Z,3.4
2018-10-18T11:05:49.676Z,2.2
2018-10-18T11:06:10.044Z,4.3
2018-10-18T11:06:31.217Z,5.4
2018-10-18T11:06:51.709Z,3.2
2018-10-18T11:07:11.992Z,2.7
2018-10-18T11:07:32.547Z,3.9
2018-10-18T11:07:53.386Z,3.7
2018-10-18T11:08:15.956Z,3.4
2018-10-18T11:08:38.485Z,3.3
2018-10-18T11:08:59.912Z,3.4
2018-10-18T11:09:20.573Z,3.9
2018-10-18T11:09:40.902Z,2.9
2018-10-18T11:10:01.304Z,2.5
2018-10-18T11:10:21.804Z,2.1
2018-10-18T11:10:42.329Z,3.3
2018-10-18T11:11:03.375Z,3.4
2018-10-18T11:11:23.297Z,3.9
2018-10-18T11:11:43.909Z,4.2
2018-10-18T11:12:03.492Z,3.5
2018-10-18T11:12:23.045Z,2.9
2018-10-18T11:12:42.553Z,2.9
2018-10-18T11:13:02.161Z,4.5
2018-10-18T11:13:21.684Z,4.1
2018-10-18T11:13:41.189Z,2.7
2018-10-18T11:14:01.003Z,2.7
2018-10-18T11:14:20.547Z,3.2
2018-10-18T11:14:40.054Z,5.2
2018-10-18T11:14:59.637Z,5
2018-10-18T11:15:19.427Z,3.8
2018-10-18T11:15:38.850Z,3.8
2018-10-18T11:15:58.367Z,4.5
2018-10-18T11:16:17.931Z,2.7
2018-10-18T11:16:37.546Z,3.8
2018-10-18T11:16:57.138Z,5.7
2018-10-18T11:17:16.758Z,4.4
2018-10-18T11:17:36.267Z,3.5
2018-10-18T11:17:55.876Z,5.1
2018-10-18T11:18:15.559Z,5.4
2018-10-18T11:18:35.084Z,5
2018-10-18T11:18:54.844Z,4.1
2018-10-18T11:19:14.390Z,3.1
2018-10-18T11:19:33.911Z,3
2018-10-18T11:19:53.424Z,4.3
2018-10-18T11:20:13.069Z,4.2
2018-10-18T11:20:32.490Z,3.5
2018-10-18T11:20:52.047Z,3.8
2018-10-18T11:21:11.660Z,3.7
2018-10-18T11:21:31.332Z,3
2018-10-18T11:21:51.149Z,3.5
2018-10-18T11:22:11.172Z,4.6
2018-10-18T11:22:30.743Z,5.4
2018-10-18T11:22:50.852Z,2.6
2018-10-18T11:23:10.438Z,2.5
2018-10-18T11:23:30.052Z,3.1
2018-10-18T11:23:50.481Z,4.3
2018-10-18T11:24:10.082Z,2.9
2018-10-18T11:24:29.585Z,3.7
2018-10-18T11:24:49.149Z,4.2
2018-10-18T11:25:08.768Z,2.5
2018-10-18T11:25:28.282Z,2.5
2018-10-18T11:25:47.844Z,2.5
2018-10-18T11:26:07.944Z,3.4
2018-10-18T11:26:27.563Z,4.3
2018-10-18T11:26:47.156Z,2.5
2018-10-18T11:27:06.754Z,2.4
2018-10-18T11:27:26.498Z,2.7
2018-10-18T11:27:46.290Z,2.4
2018-10-18T11:28:06.397Z,2
2018-10-18T11:28:26.048Z,2
2018-10-18T11:28:45.690Z,2
2018-10-18T11:29:05.321Z,1.4
2018-10-18T11:29:25.896Z,1.5
2018-10-18T11:29:45.689Z,1.9
2018-10-18T11:30:05.337Z,2.1
2018-10-18T11:30:25.105Z,2.7
2018-10-18T11:30:44.654Z,3.2
2018-10-18T11:31:04.363Z,1.1
2018-10-18T11:31:23.885Z,1.3
2018-10-18T11:31:43.449Z,1.7
2018-10-18T11:32:03.136Z,2.4
2018-10-18T11:32:22.625Z,1.7
2018-10-18T11:32:42.185Z,1.7
2018-10-18T11:33:01.790Z,2.7
2018-10-18T11:33:21.368Z,2.1
2018-10-18T11:33:40.931Z,1.9
2018-10-18T11:34:00.580Z,2.5
2018-10-18T11:34:20.197Z,2.3
2018-10-18T11:34:39.650Z,4.1
2018-10-18T11:34:59.331Z,4.2
2018-10-18T11:35:19.033Z,4.5
2018-10-18T11:35:38.551Z,3.9
2018-10-18T11:35:58.137Z,5.7
2018-10-18T11:36:17.735Z,6.2
2018-10-18T11:36:37.143Z,4.6
2018-10-18T11:36:56.720Z,4.2
2018-10-18T11:37:16.277Z,4.9
2018-10-18T11:37:35.788Z,5
2018-10-18T11:37:56.351Z,4.2
2018-10-18T11:38:16.042Z,4
2018-10-18T11:38:35.390Z,4.1
2018-10-18T11:38:54.907Z,3.4
2018-10-18T11:39:14.460Z,3.6
2018-10-18T11:39:34.049Z,3.3
2018-10-18T11:39:53.588Z,2.9
2018-10-18T11:40:13.367Z,2.3
2018-10-18T11:40:32.937Z,2.7
2018-10-18T11:40:53.445Z,2.4
2018-10-18T11:41:13.040Z,4
2018-10-18T11:41:32.701Z,2.7
2018-10-18T11:41:52.426Z,2.8
2018-10-18T11:42:12.085Z,3.1
2018-10-18T11:42:31.698Z,2.4
2018-10-18T11:42:51.291Z,3.6
2018-10-18T11:43:10.775Z,3.6
2018-10-18T11:43:30.362Z,3.7
2018-10-18T11:43:49.877Z,3.2
2018-10-18T11:44:09.577Z,2
2018-10-18T11:44:28.972Z,3.9
2018-10-18T11:44:48.499Z,5.2
2018-10-18T11:45:08.008Z,4.8
2018-10-18T11:45:27.551Z,4.7
2018-10-18T11:45:47.097Z,6.3
2018-10-18T11:46:06.618Z,6
2018-10-18T11:46:26.181Z,5.6
2018-10-18T11:46:45.697Z,5.5
2018-10-18T11:47:05.337Z,5
2018-10-18T11:47:24.927Z,4.7
2018-10-18T11:47:44.471Z,5.5
2018-10-18T11:48:05.056Z,5.9
2018-10-18T11:48:24.745Z,5.7
2018-10-18T11:48:44.342Z,5.5
2018-10-18T11:49:03.998Z,6
2018-10-18T11:49:23.748Z,5.7
2018-10-18T11:49:43.301Z,5.3
2018-10-18T11:50:02.986Z,4.2
2018-10-18T11:50:23.540Z,3.2
2018-10-18T11:50:43.105Z,4
2018-10-18T11:51:02.727Z,3.7
2018-10-18T11:51:22.393Z,2.3
2018-10-18T11:51:42.289Z,3.1
2018-10-18T11:52:01.982Z,3.6
2018-10-18T11:52:21.758Z,4.6
2018-10-18T11:52:41.643Z,4.7
2018-10-18T11:53:01.218Z,3.9
2018-10-18T11:53:20.887Z,4.4
2018-10-18T11:53:41.572Z,6.7
2018-10-18T11:54:01.325Z,8
2018-10-18T11:54:20.941Z,8.2
2018-10-18T11:54:40.563Z,6.9
2018-10-18T11:55:00.130Z,6.9
2018-10-18T11:55:19.675Z,5.2
2018-10-18T11:55:39.323Z,3.3
2018-10-18T11:55:58.915Z,4.3
2018-10-18T11:56:18.502Z,5.8
2018-10-18T11:56:38.002Z,5.7
2018-10-18T11:56:57.584Z,5.4
2018-10-18T11:57:17.185Z,3.9
2018-10-18T11:57:36.844Z,3.6
2018-10-18T11:57:56.471Z,5
2018-10-18T11:58:16.837Z,4.4
2018-10-18T11:58:36.481Z,3.1
2018-10-18T11:58:56.044Z,3.9
2018-10-18T11:59:15.632Z,3.3
2018-10-18T11:59:35.160Z,4.2
2018-10-18T11:59:54.724Z,3.5
2018-10-18T12:00:14.275Z,2.3
2018-10-18T12:00:33.838Z,3.1
2018-10-18T12:00:53.389Z,2.9
2018-10-18T12:01:12.964Z,3.3
2018-10-18T12:01:32.391Z,2.9
2018-10-18T12:01:51.900Z,3.5
2018-10-18T12:02:12.540Z,3.3
2018-10-18T12:02:32.140Z,4.1
2018-10-18T12:02:51.622Z,3.5
2018-10-18T12:03:11.164Z,3.9
2018-10-18T12:03:32.663Z,3.1
2018-10-18T12:03:52.268Z,3.3
2018-10-18T12:04:11.828Z,2.8
2018-10-18T12:04:31.378Z,5.3
2018-10-18T12:04:50.982Z,7.1
2018-10-18T12:05:10.576Z,8.1
2018-10-18T12:05:30.446Z,9
2018-10-18T12:05:50.950Z,8.1
2018-10-18T12:06:10.628Z,6.4
2018-10-18T12:06:30.166Z,5.6
2018-10-18T12:06:49.711Z,5.7
2018-10-18T12:07:09.249Z,5.4
2018-10-18T12:07:28.812Z,4.2
2018-10-18T12:07:48.364Z,5.1
2018-10-18T12:08:07.978Z,6
2018-10-18T12:08:27.439Z,8.9
2018-10-18T12:08:47.047Z,6.9
2018-10-18T12:09:06.601Z,4.1
2018-10-18T12:09:26.125Z,3.9
2018-10-18T12:09:45.650Z,3.8
2018-10-18T12:10:05.494Z,3.8
2018-10-18T12:10:25.035Z,3.7
2018-10-18T12:10:44.638Z,3.5
2018-10-18T12:11:04.219Z,2.5
2018-10-18T12:11:23.759Z,2.8
2018-10-18T12:11:43.282Z,3.3
2018-10-18T12:12:02.830Z,3.9
2018-10-18T12:12:22.423Z,3.8
2018-10-18T12:12:41.975Z,4
2018-10-18T12:13:01.765Z,4
2018-10-18T12:13:27.781Z,4.2
2018-10-18T12:13:53.729Z,5.1
2018-10-18T12:14:21.592Z,10.1
2018-10-18T12:14:44.878Z,7.9
2018-10-18T12:15:08.664Z,6.9
2018-10-18T12:15:30.758Z,6.8
2018-10-18T12:15:49.833Z,5.8
2018-10-18T12:16:12.065Z,6.1
2018-10-18T12:16:31.115Z,6.2
2018-10-18T12:16:50.673Z,3.4
2018-10-18T12:17:10.356Z,4.1
2018-10-18T12:17:29.700Z,4.2
2018-10-18T12:17:51.694Z,3.5
2018-10-18T12:18:10.605Z,3.4
2018-10-18T12:18:30.374Z,5
2018-10-18T12:18:50.399Z,4.7
2018-10-18T12:19:09.981Z,4.3
2018-10-18T12:19:30.966Z,4.6
2018-10-18T12:19:52.518Z,4
2018-10-18T12:20:12.169Z,2.7
2018-10-18T12:20:31.614Z,4.4
2018-10-18T12:20:51.144Z,6.1